Time;durP1;ratioP1;P1;durP2;ratioP2;P2;SDS_P1;SDS_P2;PMS_P1;PMS_P2;Temp;Humidity;BMP_temperature;BMP_pressure;BME280_temperature;BME280_humidity;BME280_pressure;Samples;Min_cycle;Max_cycle;Signal;HPM_P1;HPM_P2
2023/09/30 00:00:10;;;;;;;8.50;3.77;;;;;;;19.91;67.64;101391.00;4972680;28;20210;-76
2023/09/30 00:02:44;;;;;;;16.53;6.53;;;;;;;19.90;67.91;101394.72;4980342;28;20202;-75
2023/09/30 00:05:27;;;;;;;7.63;3.20;;;;;;;19.91;67.67;101396.41;4971663;28;20450;-75
2023/09/30 00:08:09;;;;;;;9.30;3.07;;;;;;;19.90;67.93;101401.97;4973580;28;20230;-75
2023/09/30 00:10:54;;;;;;;4.87;2.33;;;;;;;19.91;67.90;101403.63;4975517;28;20549;-75
2023/09/30 00:13:32;;;;;;;10.13;2.77;;;;;;;19.89;67.99;101422.66;4980477;28;20309;-76
2023/09/30 00:16:10;;;;;;;6.83;2.70;;;;;;;19.88;67.82;101415.59;4977495;28;20288;-77
2023/09/30 00:18:48;;;;;;;10.20;3.00;;;;;;;19.87;67.68;101419.34;4978680;28;20241;-75
2023/09/30 00:21:23;;;;;;;9.13;3.40;;;;;;;19.86;68.00;101420.38;4980911;28;20253;-75
2023/09/30 00:23:57;;;;;;;7.47;2.77;;;;;;;19.84;67.84;101433.16;4980566;28;20284;-74
2023/09/30 00:26:34;;;;;;;5.30;2.33;;;;;;;19.83;68.31;101427.97;4982631;28;20224;-74
2023/09/30 00:29:37;;;;;;;10.40;3.03;;;;;;;19.80;68.19;101417.56;4985592;28;20202;-75
2023/09/30 00:32:42;;;;;;;7.10;3.07;;;;;;;19.78;68.36;101433.91;4979612;28;20225;-75
2023/09/30 00:35:22;;;;;;;7.80;3.17;;;;;;;19.77;68.30;101437.63;4975704;28;20634;-74
2023/09/30 00:38:11;;;;;;;6.13;2.73;;;;;;;19.76;68.92;101438.63;4992251;28;20278;-74
2023/09/30 00:41:04;;;;;;;7.97;2.90;;;;;;;19.74;68.76;101443.34;4981126;28;20206;-75
2023/09/30 00:43:54;;;;;;;6.03;2.90;;;;;;;19.73;69.14;101444.38;4980606;28;20231;-74
2023/09/30 00:46:45;;;;;;;7.17;2.80;;;;;;;19.71;69.25;101441.03;4981625;28;20308;-76
2023/09/30 00:52:56;;;;;;;9.27;3.00;;;;;;;19.69;69.17;101448.47;4963381;28;20756;-75
2023/09/30 00:55:33;;;;;;;10.53;2.90;;;;;;;19.66;69.57;101448.00;4987071;28;20308;-75
2023/09/30 00:58:08;;;;;;;8.87;3.30;;;;;;;19.64;69.38;101450.03;4981503;28;20198;-74
2023/09/30 01:00:46;;;;;;;6.33;3.07;;;;;;;19.65;70.01;101449.00;4979051;28;20321;-74
2023/09/30 01:03:24;;;;;;;7.93;3.20;;;;;;;19.63;69.73;101443.81;4982275;28;20206;-74
2023/09/30 01:06:01;;;;;;;8.87;3.33;;;;;;;19.62;69.45;101450.19;4980060;28;20203;-74
2023/09/30 01:08:41;;;;;;;7.40;3.00;;;;;;;19.62;69.40;101447.50;4978013;28;20197;-75
2023/09/30 01:11:23;;;;;;;6.57;2.80;;;;;;;19.62;69.54;101449.38;4982169;28;20241;-75
2023/09/30 01:13:52;;;;;;;7.37;2.93;;;;;;;19.60;69.42;101441.50;4980141;28;20210;-75
2023/09/30 01:16:33;;;;;;;9.03;2.77;;;;;;;19.59;69.55;101437.13;4976861;28;20210;-75
2023/09/30 01:19:22;;;;;;;7.67;2.77;;;;;;;19.58;69.54;101442.69;4977349;28;20214;-75
2023/09/30 01:24:56;;;;;;;10.10;3.77;;;;;;;19.52;69.90;101436.22;4977242;28;20648;-74
2023/09/30 01:27:59;;;;;;;9.30;3.43;;;;;;;19.51;69.83;101434.53;4977089;28;20214;-75
2023/09/30 01:30:45;;;;;;;9.33;4.37;;;;;;;19.49;69.88;101445.47;4970340;28;20558;-75
2023/09/30 01:33:41;;;;;;;8.27;3.67;;;;;;;19.49;69.76;101448.16;4981977;28;20329;-75
2023/09/30 01:36:28;;;;;;;11.73;4.03;;;;;;;19.49;69.87;101452.69;4979701;28;20233;-74
2023/09/30 01:39:03;;;;;;;9.63;3.93;;;;;;;19.47;69.90;101455.56;4984399;28;20209;-75
2023/09/30 01:41:32;;;;;;;9.07;4.60;;;;;;;19.47;70.01;101452.00;4979713;28;20281;-75
2023/09/30 01:44:05;;;;;;;8.83;4.17;;;;;;;19.47;69.72;101460.06;4979245;28;20567;-74
2023/09/30 01:46:36;;;;;;;9.23;3.80;;;;;;;19.46;69.81;101467.31;4979591;28;20297;-75
2023/09/30 01:49:15;;;;;;;8.33;4.00;;;;;;;19.47;70.08;101465.47;4982969;28;20206;-75
2023/09/30 01:51:47;;;;;;;10.47;4.60;;;;;;;19.46;69.79;101469.16;4980636;28;20700;-75
2023/09/30 01:54:44;;;;;;;7.17;4.00;;;;;;;19.46;69.67;101464.63;4980267;28;20532;-74
2023/09/30 01:57:19;;;;;;;7.23;4.33;;;;;;;19.45;69.91;101462.09;4978481;28;20195;-75
2023/09/30 01:59:48;;;;;;;7.50;3.90;;;;;;;19.45;69.56;101451.34;4983813;28;20302;-74
2023/09/30 02:02:26;;;;;;;8.23;4.40;;;;;;;19.45;70.00;101446.81;4976487;28;20571;-75
2023/09/30 02:04:55;;;;;;;9.90;3.93;;;;;;;19.44;69.88;101441.59;4981438;28;20260;-75
2023/09/30 02:07:30;;;;;;;8.67;4.03;;;;;;;19.44;69.64;101457.75;4979529;28;20209;-75
2023/09/30 02:10:04;;;;;;;8.43;4.50;;;;;;;19.42;69.39;101457.94;4978277;28;20194;-75
2023/09/30 02:12:49;;;;;;;7.77;3.70;;;;;;;19.41;69.40;101456.28;4974407;28;20634;-74
2023/09/30 02:15:38;;;;;;;9.33;4.23;;;;;;;19.41;69.16;101455.44;4922350;28;20198;-75
2023/09/30 02:18:09;;;;;;;9.93;4.33;;;;;;;19.38;69.13;101453.09;4974198;28;20195;-75
2023/09/30 02:23:41;;;;;;;8.27;4.03;;;;;;;19.35;69.17;101469.63;4969556;28;20588;-77
2023/09/30 02:26:27;;;;;;;7.30;3.80;;;;;;;19.32;69.52;101464.59;4975699;28;20202;-74
2023/09/30 02:28:56;;;;;;;12.03;4.57;;;;;;;19.30;69.71;101474.69;4983275;28;20330;-74
2023/09/30 02:34:35;;;;;;;8.13;4.27;;;;;;;19.21;69.87;101479.28;4979024;28;20195;-75
2023/09/30 02:37:10;;;;;;;8.17;4.33;;;;;;;19.18;69.92;101475.09;4975069;28;20669;-75
2023/09/30 02:39:39;;;;;;;10.97;4.80;;;;;;;19.16;69.87;101482.53;4979439;28;20198;-75
2023/09/30 02:42:15;;;;;;;11.53;4.67;;;;;;;19.15;70.10;101488.09;4978985;28;20689;-75
2023/09/30 02:44:49;;;;;;;6.90;4.80;;;;;;;19.11;70.07;101487.59;4978826;28;20198;-75
2023/09/30 02:47:18;;;;;;;15.37;5.03;;;;;;;19.09;70.36;101484.25;4977425;28;20230;-76
2023/09/30 02:49:47;;;;;;;9.27;4.97;;;;;;;19.05;70.71;101485.63;4978935;28;20198;-75
2023/09/30 02:52:19;;;;;;;10.23;5.20;;;;;;;19.01;70.45;101497.75;4978897;28;20215;-76
2023/09/30 02:54:52;;;;;;;7.83;4.33;;;;;;;18.99;70.53;101502.47;4983718;28;20653;-75
2023/09/30 02:57:28;;;;;;;8.73;4.80;;;;;;;18.97;71.05;101512.56;4982154;28;20199;-76
2023/09/30 02:59:59;;;;;;;11.70;5.20;;;;;;;18.94;70.82;101510.22;4976222;28;20218;-75
2023/09/30 03:02:31;;;;;;;9.57;5.00;;;;;;;18.92;71.19;101509.56;4979718;28;20210;-75
2023/09/30 03:05:03;;;;;;;9.23;5.27;;;;;;;18.87;70.96;101509.28;4971914;28;20199;-74
2023/09/30 03:07:33;;;;;;;13.40;5.43;;;;;;;18.84;71.38;101515.00;4978705;28;20196;-74
2023/09/30 03:10:08;;;;;;;10.37;5.43;;;;;;;18.82;70.77;101508.97;4976532;28;20195;-75
2023/09/30 03:12:38;;;;;;;13.50;5.27;;;;;;;18.79;70.56;101502.09;4978427;28;20225;-74
2023/09/30 03:15:10;;;;;;;10.80;4.70;;;;;;;18.78;70.90;101497.72;4975546;28;20226;-75
2023/09/30 03:17:39;;;;;;;14.07;6.27;;;;;;;18.73;70.80;101488.53;4975417;28;20209;-74
2023/09/30 03:20:21;;;;;;;8.27;4.80;;;;;;;18.71;70.52;101490.56;4973836;28;20289;-74
2023/09/30 03:23:11;;;;;;;13.00;5.67;;;;;;;18.67;70.47;101483.84;4962211;28;20214;-74
2023/09/30 03:25:43;;;;;;;11.03;5.60;;;;;;;18.64;70.51;101481.53;4976682;28;20210;-74
2023/09/30 03:28:20;;;;;;;12.23;5.77;;;;;;;18.60;70.50;101493.63;4976277;28;20206;-75
2023/09/30 03:30:56;;;;;;;11.23;6.23;;;;;;;18.58;70.45;101493.81;4978636;28;20294;-74
2023/09/30 03:33:37;;;;;;;12.20;6.27;;;;;;;18.57;70.46;101499.34;4977690;28;20218;-74
2023/09/30 03:36:11;;;;;;;12.70;5.87;;;;;;;18.56;70.66;101513.78;4976565;28;20205;-74
2023/09/30 03:38:41;;;;;;;12.87;5.60;;;;;;;18.54;70.37;101515.78;4981818;28;20292;-74
2023/09/30 03:41:20;;;;;;;9.87;5.53;;;;;;;18.50;70.57;101514.47;4977691;28;20657;-75
2023/09/30 03:44:08;;;;;;;11.17;5.83;;;;;;;18.46;70.95;101514.00;4974846;28;20198;-74
2023/09/30 03:46:52;;;;;;;14.90;6.63;;;;;;;18.44;70.86;101521.38;4982303;28;20229;-75
2023/09/30 03:49:24;;;;;;;12.80;6.27;;;;;;;18.45;70.83;101519.53;4974602;28;20672;-74
2023/09/30 03:51:54;;;;;;;12.70;6.50;;;;;;;18.42;70.66;101534.97;4977713;28;20618;-74
2023/09/30 03:54:25;;;;;;;11.90;6.30;;;;;;;18.42;70.65;101534.97;4977435;28;20211;-75
2023/09/30 03:57:01;;;;;;;13.53;6.07;;;;;;;18.40;70.64;101522.72;4975075;28;20255;-75
2023/09/30 03:59:48;;;;;;;12.07;6.17;;;;;;;18.38;70.56;101525.56;4985993;28;20686;-75
2023/09/30 04:02:24;;;;;;;16.20;6.50;;;;;;;18.38;70.20;101533.63;4974532;28;20211;-76
2023/09/30 04:04:55;;;;;;;11.43;5.90;;;;;;;18.38;69.90;101522.09;4965828;28;20210;-74
2023/09/30 04:07:36;;;;;;;13.07;5.87;;;;;;;18.37;70.00;101521.25;4978932;28;20211;-76
2023/09/30 04:10:16;;;;;;;10.40;6.07;;;;;;;18.37;69.88;101523.94;4974084;28;20202;-74
2023/09/30 04:12:48;;;;;;;14.60;6.53;;;;;;;18.37;69.72;101521.25;4978180;28;20262;-74
2023/09/30 04:15:22;;;;;;;14.20;6.07;;;;;;;18.35;69.66;101520.56;4982497;28;20254;-75
2023/09/30 04:17:51;;;;;;;12.83;6.57;;;;;;;18.35;69.93;101523.25;4978267;28;20628;-75
2023/09/30 04:20:23;;;;;;;13.17;5.83;;;;;;;18.35;69.63;101523.25;4974147;28;20210;-75
2023/09/30 04:22:57;;;;;;;15.97;6.17;;;;;;;18.35;70.04;101525.09;4971651;28;20211;-75
2023/09/30 04:25:30;;;;;;;15.07;6.67;;;;;;;18.32;69.95;101522.75;4980742;28;20550;-76
2023/09/30 04:27:59;;;;;;;10.73;6.00;;;;;;;18.34;69.68;101515.38;4972310;28;20238;-74
2023/09/30 04:30:29;;;;;;;9.97;5.93;;;;;;;18.32;69.58;101514.69;4973399;28;20277;-75
2023/09/30 04:33:12;;;;;;;12.60;6.30;;;;;;;18.32;69.46;101509.31;4973370;28;20214;-76
2023/09/30 04:35:48;;;;;;;12.73;6.60;;;;;;;18.30;69.81;101511.34;4974721;28;20680;-75
2023/09/30 04:38:27;;;;;;;15.77;6.70;;;;;;;18.29;69.92;101513.22;4973390;28;20199;-74
2023/09/30 04:40:56;;;;;;;12.60;6.40;;;;;;;18.28;69.87;101529.50;4979528;28;20210;-74
2023/09/30 04:43:28;;;;;;;13.93;6.13;;;;;;;18.26;69.69;101535.03;4974980;28;20226;-75
2023/09/30 04:45:59;;;;;;;12.33;6.50;;;;;;;18.23;70.13;101530.00;4976881;28;20259;-75
2023/09/30 04:48:31;;;;;;;15.47;6.63;;;;;;;18.23;70.36;101526.47;4973429;28;20202;-75
2023/09/30 04:51:04;;;;;;;15.77;7.13;;;;;;;18.20;70.03;101518.78;4970871;28;20630;-76
2023/09/30 04:53:33;;;;;;;12.40;6.43;;;;;;;18.16;70.05;101530.84;4982701;28;20226;-74
2023/09/30 04:56:03;;;;;;;14.77;6.93;;;;;;;18.15;70.52;101526.50;4983757;28;20198;-75
2023/09/30 04:58:33;;;;;;;13.23;6.70;;;;;;;18.12;70.65;101516.94;4977559;28;20203;-74
2023/09/30 05:01:03;;;;;;;17.93;7.13;;;;;;;18.08;70.72;101526.34;4977580;28;20241;-76
2023/09/30 05:03:32;;;;;;;15.17;7.77;;;;;;;18.06;71.16;101525.69;4977468;28;20302;-75
2023/09/30 05:06:02;;;;;;;14.23;7.30;;;;;;;18.04;71.10;101525.00;4982275;28;20195;-74
2023/09/30 05:08:36;;;;;;;14.77;7.60;;;;;;;18.00;70.78;101529.91;4979724;28;20202;-74
2023/09/30 05:11:05;;;;;;;11.53;7.27;;;;;;;17.97;71.05;101535.59;4980022;28;20202;-75
2023/09/30 05:13:36;;;;;;;14.37;7.10;;;;;;;17.92;71.16;101539.81;4980620;28;20319;-75
2023/09/30 05:16:07;;;;;;;12.47;6.43;;;;;;;17.89;71.64;101558.91;4979276;28;20227;-74
2023/09/30 05:18:36;;;;;;;14.87;7.07;;;;;;;17.86;71.93;101559.25;4983970;28;20198;-74
2023/09/30 05:21:06;;;;;;;11.50;6.87;;;;;;;17.73;72.27;101554.41;4981348;28;20225;-74
2023/09/30 05:23:35;;;;;;;13.20;6.80;;;;;;;17.71;72.54;101560.94;4984669;28;20218;-76
2023/09/30 05:26:04;;;;;;;16.00;7.37;;;;;;;17.72;72.85;101560.78;4977807;28;20221;-75
2023/09/30 05:28:34;;;;;;;17.97;8.33;;;;;;;17.73;72.68;101567.81;4981332;28;20250;-74
2023/09/30 05:31:02;;;;;;;14.03;6.90;;;;;;;17.71;72.39;101563.63;4978753;28;20201;-75
2023/09/30 05:33:32;;;;;;;16.20;7.43;;;;;;;17.62;72.85;101554.75;4977421;28;20234;-75
2023/09/30 05:36:03;;;;;;;13.07;7.50;;;;;;;17.61;73.21;101566.44;4980127;28;20262;-76
2023/09/30 05:46:02;;;;;;;13.07;7.57;;;;;;;17.56;73.61;101566.13;4889968;29;20202;-74
2023/09/30 05:48:46;;;;;;;13.17;8.37;;;;;;;17.55;73.48;101567.97;4965270;28;20249;-74
2023/09/30 05:51:40;;;;;;;17.90;8.83;;;;;;;17.55;73.71;101578.69;4984833;28;20667;-74
2023/09/30 05:54:24;;;;;;;13.63;8.13;;;;;;;17.56;73.22;101577.69;4990845;28;20238;-74
2023/09/30 05:57:02;;;;;;;14.13;8.80;;;;;;;17.58;73.27;101574.84;4978410;28;20646;-75
2023/09/30 05:59:34;;;;;;;15.77;8.23;;;;;;;17.58;73.23;101581.03;4980519;28;20277;-74
2023/09/30 06:02:25;;;;;;;;;;;;;;;;;;;;;
2023/09/30 06:15:00;;;;;;;19.80;9.10;;;;;;;17.70;72.88;101591.44;4976441;28;20291;-74
2023/09/30 06:17:51;;;;;;;16.87;8.53;;;;;;;17.72;72.82;101587.59;4936410;29;20215;-74
2023/09/30 06:28:13;;;;;;;17.93;7.63;;;;;;;17.57;73.85;101581.22;4935947;29;20200;-74
2023/09/30 06:45:55;;;;;;;12.27;7.87;;;;;;;17.94;72.17;101618.31;4823080;29;20274;-75
2023/09/30 07:03:30;;;;;;;15.20;8.10;;;;;;;18.14;70.93;101634.88;4876480;29;20684;-74
2023/09/30 07:09:28;;;;;;;20.27;8.03;;;;;;;18.19;70.88;101624.50;4880452;29;20225;-74
2023/09/30 07:26:55;;;;;;;14.43;8.03;;;;;;;18.40;69.15;101644.41;4802685;29;20227;-75
2023/09/30 07:29:59;;;;;;;16.87;9.57;;;;;;;18.43;69.60;101629.81;4810791;29;20222;-74
2023/09/30 07:40:40;;;;;;;17.20;8.37;;;;;;;18.52;68.61;101636.00;4864580;29;20723;-76
2023/09/30 07:43:08;;;;;;;17.50;8.63;;;;;;;18.56;68.82;101640.84;4858656;29;20241;-76
2023/09/30 07:45:37;;;;;;;18.63;8.97;;;;;;;18.58;69.19;101656.81;4933432;28;20215;-75
2023/09/30 07:48:09;;;;;;;14.53;7.23;;;;;;;18.59;68.86;101653.97;4949607;28;20211;-75
2023/09/30 07:50:38;;;;;;;15.10;8.57;;;;;;;18.66;68.75;101654.13;4950167;28;20213;-75
2023/09/30 07:53:07;;;;;;;18.50;8.17;;;;;;;18.70;68.85;101652.78;4949503;28;20218;-75
2023/09/30 07:55:37;;;;;;;16.53;8.03;;;;;;;18.72;68.58;101648.91;4952727;29;20231;-75
2023/09/30 07:58:07;;;;;;;16.23;8.47;;;;;;;18.75;68.33;101650.41;4947073;29;20275;-74
2023/09/30 08:00:36;;;;;;;11.13;7.20;;;;;;;18.76;68.21;101638.63;4950988;28;20315;-75
2023/09/30 08:03:06;;;;;;;15.37;8.00;;;;;;;18.81;67.97;101641.66;4948100;28;20331;-75
2023/09/30 08:05:37;;;;;;;14.67;8.53;;;;;;;18.87;67.88;101649.03;4949340;28;20211;-77
2023/09/30 08:08:10;;;;;;;15.33;7.83;;;;;;;18.93;67.65;101650.16;4947239;28;20222;-74
2023/09/30 08:13:29;;;;;;;13.07;7.17;;;;;;;19.05;65.97;101649.63;4947153;28;20191;-74
2023/09/30 08:15:57;;;;;;;15.73;7.47;;;;;;;19.15;65.63;101655.63;4941197;29;20636;-74
2023/09/30 08:18:26;;;;;;;11.83;6.67;;;;;;;19.24;65.37;101652.91;4943248;28;20220;-74
2023/09/30 08:20:56;;;;;;;11.90;6.60;;;;;;;19.28;64.50;101643.44;4944704;28;20290;-74
2023/09/30 08:23:26;;;;;;;17.13;6.13;;;;;;;19.32;63.89;101644.78;4946824;28;20210;-76
2023/09/30 08:25:54;;;;;;;14.67;6.67;;;;;;;19.32;64.66;101647.47;4948251;28;20224;-75
2023/09/30 08:28:22;;;;;;;10.87;5.70;;;;;;;19.35;64.21;101649.81;4942945;29;20231;-74
2023/09/30 08:30:54;;;;;;;14.47;5.77;;;;;;;19.41;63.44;101654.47;4950499;28;20211;-74
2023/09/30 08:33:22;;;;;;;17.43;5.40;;;;;;;19.54;62.23;101660.97;4946140;28;20255;-75
2023/09/30 08:35:51;;;;;;;11.73;5.23;;;;;;;19.91;60.75;101665.59;4950957;28;20230;-74
2023/09/30 08:38:19;;;;;;;15.27;5.70;;;;;;;20.44;58.97;101665.66;4955684;28;20348;-75
2023/09/30 08:40:49;;;;;;;15.97;4.90;;;;;;;20.50;58.21;101663.06;4951867;28;20235;-74
2023/09/30 08:43:24;;;;;;;10.70;4.43;;;;;;;20.90;55.85;101663.63;4948918;28;20636;-75
2023/09/30 08:45:55;;;;;;;13.57;4.27;;;;;;;21.20;54.24;101654.50;4950635;28;20202;-75
2023/09/30 08:48:26;;;;;;;14.27;5.17;;;;;;;21.42;53.89;101668.06;4952326;28;20220;-76
2023/09/30 08:50:55;;;;;;;13.33;5.07;;;;;;;22.35;51.15;101665.22;4947986;28;20207;-75
2023/09/30 08:53:24;;;;;;;10.90;4.27;;;;;;;25.84;44.17;101662.75;4950893;28;20239;-75
2023/09/30 08:56:00;;;;;;;12.52;3.92;;;;;;;29.19;38.09;101653.69;4948485;28;20674;-75
2023/09/30 08:58:29;;;;;;;11.23;5.22;;;;;;;31.43;33.90;101647.88;4953869;28;20203;-75
2023/09/30 09:00:57;;;;;;;10.60;4.60;;;;;;;32.10;32.84;101652.91;4957415;28;20621;-77
2023/09/30 09:03:29;;;;;;;13.63;4.95;;;;;;;31.63;33.33;101652.78;4956208;28;20226;-76
2023/09/30 09:05:57;;;;;;;12.18;6.15;;;;;;;31.78;32.58;101653.72;4952105;29;20667;-75
2023/09/30 09:08:26;;;;;;;13.80;6.05;;;;;;;31.40;32.71;101659.38;4953246;28;20206;-77
2023/09/30 09:11:05;;;;;;;12.32;5.68;;;;;;;30.48;34.11;101660.06;4945195;28;20219;-76
2023/09/30 09:13:49;;;;;;;14.27;6.43;;;;;;;28.82;36.86;101658.66;4950646;28;20628;-76
2023/09/30 09:16:19;;;;;;;14.52;6.00;;;;;;;27.27;39.22;101660.69;4947107;28;20220;-75
2023/09/30 09:18:47;;;;;;;12.73;5.95;;;;;;;26.03;40.83;101652.78;4947702;29;20213;-74
2023/09/30 09:21:20;;;;;;;13.07;5.15;;;;;;;25.68;41.96;101655.94;4948560;28;20574;-73
2023/09/30 09:23:50;;;;;;;11.30;5.20;;;;;;;27.67;38.76;101661.00;4949982;28;20203;-74
2023/09/30 09:26:27;;;;;;;11.55;5.53;;;;;;;28.45;37.48;101647.16;4949405;28;20215;-76
2023/09/30 09:28:58;;;;;;;10.82;5.07;;;;;;;28.73;37.20;101652.69;4945061;28;20203;-75
2023/09/30 09:31:28;;;;;;;15.27;5.28;;;;;;;28.94;36.40;101661.38;4948878;28;20631;-75
2023/09/30 09:33:57;;;;;;;10.18;4.43;;;;;;;28.16;37.27;101651.66;4947032;29;20268;-74
2023/09/30 09:36:39;;;;;;;8.82;4.88;;;;;;;27.99;37.56;101659.66;4948896;28;20232;-81
2023/09/30 09:39:09;;;;;;;11.63;4.93;;;;;;;28.31;37.65;101653.94;4948647;28;20200;-75
2023/09/30 09:41:50;;;;;;;10.93;4.10;;;;;;;29.95;34.49;101643.38;4947776;28;20224;-75
2023/09/30 09:44:21;;;;;;;10.60;4.50;;;;;;;30.03;34.08;101643.78;4945459;28;20267;-75
2023/09/30 09:49:46;;;;;;;9.70;4.05;;;;;;;26.37;40.23;101659.63;4958548;28;20202;-74
2023/09/30 09:52:20;;;;;;;14.35;4.53;;;;;;;25.15;42.55;101654.56;4956833;28;20205;-74
2023/09/30 09:54:59;;;;;;;10.85;4.63;;;;;;;24.28;44.13;101662.03;4949507;28;20693;-74
2023/09/30 09:57:31;;;;;;;8.40;4.50;;;;;;;23.66;45.58;101664.25;4953106;28;20286;-75
2023/09/30 10:00:05;;;;;;;12.75;4.82;;;;;;;23.19;47.31;101668.66;4953415;28;20199;-74
2023/09/30 10:02:34;;;;;;;10.30;4.90;;;;;;;22.81;47.91;101666.41;4953173;28;20208;-74
2023/09/30 10:05:05;;;;;;;11.38;4.68;;;;;;;22.53;49.13;101661.00;4946429;28;20212;-74
2023/09/30 10:07:37;;;;;;;10.45;4.65;;;;;;;22.29;48.71;101655.19;4948361;29;20311;-75
2023/09/30 10:10:13;;;;;;;10.63;4.47;;;;;;;22.10;50.50;101651.31;4948512;28;20294;-75
2023/09/30 10:12:42;;;;;;;7.13;3.85;;;;;;;22.01;51.19;101647.91;4947070;28;20211;-75
2023/09/30 10:15:40;;;;;;;10.70;4.60;;;;;;;22.55;50.34;101628.34;4948490;29;20286;-74
2023/09/30 10:18:10;;;;;;;8.80;4.20;;;;;;;22.92;48.83;101627.13;4909817;29;20193;-74
2023/09/30 10:20:47;;;;;;;7.72;3.65;;;;;;;22.86;48.59;101615.25;4943478;28;20218;-75
2023/09/30 10:23:27;;;;;;;10.63;3.72;;;;;;;22.78;48.76;101626.22;4951425;28;20195;-74
2023/09/30 10:26:17;;;;;;;10.32;4.43;;;;;;;22.91;48.94;101613.81;4945616;29;20251;-76
2023/09/30 10:28:50;;;;;;;11.60;4.82;;;;;;;22.73;49.00;101614.31;4944774;28;20674;-75
2023/09/30 10:31:24;;;;;;;8.50;4.68;;;;;;;22.54;49.69;101621.28;4945887;28;20199;-75
2023/09/30 10:34:23;;;;;;;8.55;4.10;;;;;;;22.35;50.85;101616.56;4949703;28;20202;-75
2023/09/30 10:36:52;;;;;;;11.73;4.68;;;;;;;22.10;51.42;101614.31;4941120;28;20228;-76
2023/09/30 10:39:55;;;;;;;11.55;4.70;;;;;;;21.83;51.80;101622.38;4954693;28;20254;-74
2023/09/30 10:42:49;;;;;;;10.68;4.80;;;;;;;21.72;51.89;101611.06;4947870;28;20237;-74
2023/09/30 10:45:48;;;;;;;16.73;6.65;;;;;;;22.75;49.30;101610.41;4961488;28;20249;-76
2023/09/30 10:48:41;;;;;;;13.98;5.35;;;;;;;22.84;47.82;101613.78;4943862;29;20191;-74
2023/09/30 10:51:16;;;;;;;12.63;5.45;;;;;;;22.77;48.93;101605.66;4952203;28;20207;-73
2023/09/30 10:53:50;;;;;;;12.50;4.55;;;;;;;22.67;49.62;101596.19;4949488;28;20203;-74
2023/09/30 10:56:18;;;;;;;10.25;4.93;;;;;;;22.63;48.56;101592.22;4947796;28;20281;-80
2023/09/30 10:58:47;;;;;;;13.45;4.82;;;;;;;22.77;48.97;101610.22;4951823;28;20270;-76
2023/09/30 11:01:18;;;;;;;7.88;3.72;;;;;;;23.00;48.15;101613.44;4950907;28;20720;-74
2023/09/30 11:03:49;;;;;;;10.40;4.50;;;;;;;23.25;47.98;101605.59;4950822;28;20333;-73
2023/09/30 11:06:19;;;;;;;13.02;4.65;;;;;;;23.37;47.94;101600.44;4947458;28;20223;-75
2023/09/30 11:08:52;;;;;;;12.85;5.10;;;;;;;23.43;47.27;101599.59;4951095;28;20291;-75
2023/09/30 11:11:20;;;;;;;12.25;5.03;;;;;;;23.23;47.66;101599.56;4954200;28;20204;-74
2023/09/30 11:13:49;;;;;;;13.13;4.80;;;;;;;23.96;47.19;101592.41;4945985;28;20239;-75
2023/09/30 11:16:19;;;;;;;12.43;4.85;;;;;;;24.56;44.47;101602.13;4947669;28;20231;-74
2023/09/30 11:18:47;;;;;;;10.75;4.72;;;;;;;25.14;43.77;101590.47;4948623;28;20668;-75
2023/09/30 11:21:15;;;;;;;18.65;6.43;;;;;;;25.24;42.88;101596.25;4945349;28;20199;-76
2023/09/30 11:23:43;;;;;;;9.30;5.20;;;;;;;24.89;43.83;101602.00;4946181;28;20204;-75
2023/09/30 11:26:13;;;;;;;11.70;4.80;;;;;;;24.79;43.91;101606.25;4950177;28;20212;-75
2023/09/30 11:28:45;;;;;;;14.55;4.68;;;;;;;25.15;43.35;101600.28;4944018;28;20200;-76
2023/09/30 11:31:14;;;;;;;8.35;4.03;;;;;;;25.12;43.95;101609.69;4949967;28;20231;-76
2023/09/30 11:33:52;;;;;;;10.13;4.47;;;;;;;25.03;44.07;101603.66;4947939;28;20211;-76
2023/09/30 11:36:22;;;;;;;10.65;3.85;;;;;;;25.16;43.89;101610.06;4946108;28;20298;-75
2023/09/30 11:38:52;;;;;;;10.57;4.47;;;;;;;24.97;43.60;101606.41;4948551;28;20212;-75
2023/09/30 11:41:22;;;;;;;9.80;4.15;;;;;;;24.58;44.73;101602.75;4952706;28;20203;-75
2023/09/30 11:44:07;;;;;;;17.52;5.47;;;;;;;24.23;45.22;101601.38;4949606;28;20208;-74
2023/09/30 11:46:51;;;;;;;13.07;5.15;;;;;;;23.75;46.69;101611.56;4945739;28;20259;-77
2023/09/30 11:49:31;;;;;;;14.20;5.43;;;;;;;23.45;45.68;101609.19;4944476;28;20215;-74
2023/09/30 11:52:01;;;;;;;11.43;5.45;;;;;;;23.33;45.76;101602.72;4952370;28;20196;-74
2023/09/30 11:54:33;;;;;;;14.20;5.45;;;;;;;23.31;46.66;101587.75;4950618;28;20290;-74
2023/09/30 11:57:03;;;;;;;11.35;4.93;;;;;;;23.45;46.11;101592.97;4951553;28;20270;-74
2023/09/30 11:59:31;;;;;;;13.23;5.00;;;;;;;23.56;46.02;101589.69;4952837;28;20238;-74
2023/09/30 12:01:59;;;;;;;13.05;5.60;;;;;;;23.63;45.24;101592.41;4949329;28;20208;-74
2023/09/30 12:04:33;;;;;;;10.77;4.68;;;;;;;23.69;45.29;101585.31;4946265;29;20207;-74
2023/09/30 12:07:08;;;;;;;14.30;5.78;;;;;;;23.50;44.84;101587.78;4943972;28;20682;-75
2023/09/30 12:09:38;;;;;;;11.93;5.18;;;;;;;23.33;45.79;101583.75;4944701;28;20208;-74
2023/09/30 12:12:09;;;;;;;10.27;4.50;;;;;;;23.29;45.48;101582.53;4945029;28;20210;-74
2023/09/30 12:14:39;;;;;;;11.00;4.97;;;;;;;23.17;46.05;101581.44;4951245;29;20286;-74
2023/09/30 12:17:10;;;;;;;10.80;5.05;;;;;;;23.04;46.97;101581.41;4945209;28;20232;-74
2023/09/30 12:19:42;;;;;;;12.82;5.28;;;;;;;22.98;46.93;101580.34;4947839;28;20203;-74
2023/09/30 12:22:11;;;;;;;8.77;4.60;;;;;;;22.94;47.12;101564.72;4940768;28;20244;-73
2023/09/30 12:24:40;;;;;;;11.85;5.00;;;;;;;23.00;47.55;101558.50;4952560;28;20195;-75
2023/09/30 12:27:09;;;;;;;8.55;4.55;;;;;;;23.04;47.54;101557.06;4946676;28;20203;-74
2023/09/30 12:29:38;;;;;;;15.23;5.57;;;;;;;22.96;47.09;101554.53;4954145;28;20203;-74
2023/09/30 12:32:07;;;;;;;11.52;4.80;;;;;;;22.92;47.02;101554.09;4942269;28;20211;-77
2023/09/30 12:34:35;;;;;;;11.00;4.93;;;;;;;22.88;47.28;101553.66;4945958;28;20211;-74
2023/09/30 12:37:05;;;;;;;12.73;5.03;;;;;;;22.79;47.43;101551.34;4942837;28;20378;-78
2023/09/30 12:39:34;;;;;;;10.20;4.93;;;;;;;22.86;46.17;101544.94;4945176;28;20215;-75
2023/09/30 12:42:08;;;;;;;13.95;5.13;;;;;;;22.77;46.47;101545.31;4947046;28;20219;-74
2023/09/30 12:44:39;;;;;;;12.70;5.38;;;;;;;22.64;47.28;101534.41;4945697;28;20203;-74
2023/09/30 12:47:07;;;;;;;14.50;5.38;;;;;;;22.48;48.15;101541.00;4945799;28;20206;-74
2023/09/30 12:49:34;;;;;;;10.73;4.47;;;;;;;22.28;47.85;101538.19;4945921;28;20266;-75
2023/09/30 12:52:03;;;;;;;11.82;5.93;;;;;;;22.19;48.66;101530.44;4947781;28;20201;-73
2023/09/30 12:54:33;;;;;;;14.48;5.10;;;;;;;22.16;48.32;101538.94;4952641;28;20203;-74
2023/09/30 12:57:02;;;;;;;11.32;5.20;;;;;;;22.14;48.58;101539.16;4945229;28;20232;-74
2023/09/30 12:59:30;;;;;;;16.83;5.32;;;;;;;22.10;47.86;101543.25;4942699;29;20658;-74
2023/09/30 13:01:58;;;;;;;11.70;5.65;;;;;;;22.09;48.50;101547.00;4947100;28;20232;-74
2023/09/30 13:04:30;;;;;;;10.55;5.22;;;;;;;22.13;48.70;101548.28;4946221;28;20212;-75
2023/09/30 13:06:58;;;;;;;11.10;5.75;;;;;;;22.17;48.25;101554.94;4946856;28;20306;-74
2023/09/30 13:09:26;;;;;;;10.40;5.28;;;;;;;22.17;49.11;101546.00;4946045;28;20198;-74
2023/09/30 13:12:13;;;;;;;10.70;5.05;;;;;;;22.17;49.09;101549.53;4950514;28;20207;-74
2023/09/30 13:14:42;;;;;;;10.57;5.10;;;;;;;22.17;48.63;101532.50;4940081;28;20215;-74
2023/09/30 13:17:14;;;;;;;10.88;5.40;;;;;;;22.18;48.64;101528.75;4947431;28;20228;-74
2023/09/30 13:19:42;;;;;;;10.93;5.28;;;;;;;22.19;47.61;101525.88;4949641;28;20259;-75
2023/09/30 13:22:58;;;;;;;11.77;5.13;;;;;;;22.21;48.79;101522.97;4950181;28;20243;-74
2023/09/30 13:25:27;;;;;;;13.48;5.25;;;;;;;22.12;48.36;101522.28;4942833;28;20200;-74
2023/09/30 13:28:00;;;;;;;10.50;5.38;;;;;;;22.12;48.60;101516.88;4950168;28;20243;-74
2023/09/30 13:30:48;;;;;;;13.88;6.25;;;;;;;22.13;49.10;101514.00;4952280;29;20282;-74
2023/09/30 13:33:16;;;;;;;12.40;5.88;;;;;;;22.14;49.08;101518.38;4952942;28;20223;-74